map of DMK home
Great Circle Mapper logo
DMK - Airport
Location
City:  Bangkok, Thailand
Name:Don Mueang International Airport
Old (Alt.):Don Muang International Airport
ICAO / IATA:VTBD / DMK

Details
Type:Airport (Aerodrome, Airfield)
Use:Public/Civil, Military, International (customs port of entry)
Latitude:1354'45"N (13.912583)
Longitude:10036'24"E (100.606750)
Datum:WGS 1984
Elevation:9 ft (3 m)
Runways:2
Longest:12139 × 197 ft (3700 × 60 m), paved

Time
Time Zone:UTC+7
Local Time:

Weather
METAR:VTBD 241400Z 22011KT 9999 FEW020 BKN300 31/26 Q1009 NOSIG

Related Locations
Nearby:
Farthest:SPLP: 12240 mi / 19699 km
Lima [Las Palmas AFB], PE

Find:

   beyond  
but within

Other Information
Maps:
NOTAMs:
Links:
Sources:

  
flag of Thailand   

Airport Diagram

Airport diagram for DMK

Airport diagram (OBSOLETE) from NGA

Sectional Chart

Flight Planning
at skyvector.com

Satellite Image

Google Maps Satellite View

 

Copyright © 2004-2014 Karl L. Swartz. All rights reserved.
The Great Circle Mapper name and logo are trademarks of the Great Circle Mapper.
All other trademarks mentioned herein belong to their respective owners.
Please see credits for attibutions and further copyright information.

  Follow gcmap on Facebook Follow gcmap on Twitter

hCard Microformat

Geo Microformat